createdAt,value
2022-09-04T00:02:50.460Z,101206.38
2022-09-04T00:05:23.990Z,101208.41
2022-09-04T00:08:19.481Z,101208.06
2022-09-04T00:11:07.298Z,101204.22
2022-09-04T00:13:57.547Z,101204.13
2022-09-04T00:16:37.405Z,101213.44
2022-09-04T00:19:33.704Z,101218.13
2022-09-04T00:22:02.981Z,101214.38
2022-09-04T00:24:42.534Z,101216.63
2022-09-04T00:27:23.089Z,101220.97
2022-09-04T00:30:14.038Z,101223.53
2022-09-04T00:32:46.345Z,101207.44
2022-09-04T00:35:32.672Z,101227.41
2022-09-04T00:38:10.449Z,101238.88
2022-09-04T00:41:15.230Z,101241.44
2022-09-04T00:44:18.898Z,101242.47
2022-09-04T00:46:54.315Z,101241.47
2022-09-04T00:49:42.219Z,101242.31
2022-09-04T00:52:32.501Z,101244.44
2022-09-04T00:55:34.371Z,101245.84
2022-09-04T00:58:09.770Z,101252.81
2022-09-04T01:00:36.808Z,101243.75
2022-09-04T01:03:23.679Z,101265.38
2022-09-04T01:06:19.967Z,101261.13
2022-09-04T01:09:12.346Z,101271.50
2022-09-04T01:12:00.004Z,101272.44
2022-09-04T01:14:48.269Z,101296.03
2022-09-04T01:17:30.435Z,101287.25
2022-09-04T01:20:21.799Z,101290.63
2022-09-04T01:23:30.615Z,101286.91
2022-09-04T01:26:25.213Z,101294.06
2022-09-04T01:29:18.872Z,101298.28
2022-09-04T01:32:20.890Z,101299.44
2022-09-04T01:35:05.357Z,101293.31
2022-09-04T01:37:45.305Z,101298.91
2022-09-04T01:40:35.694Z,101311.47
2022-09-04T01:43:06.991Z,101314.03
2022-09-04T01:46:10.227Z,101313.81
2022-09-04T01:49:04.100Z,101313.59
2022-09-04T01:52:07.964Z,101319.00
2022-09-04T01:55:01.778Z,101307.91
2022-09-04T01:57:57.796Z,101309.56
2022-09-04T02:00:25.610Z,101310.31
2022-09-04T02:03:13.585Z,101296.66
2022-09-04T02:06:14.347Z,101314.19
2022-09-04T02:09:09.875Z,101313.25
2022-09-04T02:11:38.003Z,101318.28
2022-09-04T02:14:20.071Z,101317.31
2022-09-04T02:17:02.214Z,101314.97
2022-09-04T02:19:57.434Z,101315.81
2022-09-04T02:22:49.219Z,101309.97
2022-09-04T02:25:37.135Z,101312.22
2022-09-04T02:28:39.587Z,101315.97
2022-09-04T02:31:24.223Z,101318.91
2022-09-04T02:34:15.009Z,101324.06
2022-09-04T02:36:50.690Z,101332.66
2022-09-04T02:39:28.228Z,101323.59
2022-09-04T02:42:21.283Z,101336.63
2022-09-04T02:45:21.755Z,101334.53
2022-09-04T02:48:13.805Z,101327.56
2022-09-04T02:50:59.321Z,101331.78
2022-09-04T02:53:50.183Z,101337.75
2022-09-04T02:56:27.917Z,101336.97
2022-09-04T02:59:16.487Z,101339.66
2022-09-04T03:01:50.014Z,101342.50
2022-09-04T03:04:40.285Z,101341.91
2022-09-04T03:07:13.474Z,101346.47
2022-09-04T03:09:55.754Z,101323.41
2022-09-04T03:12:37.451Z,101343.41
2022-09-04T03:15:27.301Z,101340.69
2022-09-04T03:18:05.674Z,101342.50
2022-09-04T03:21:02.411Z,101343.66
2022-09-04T03:23:46.695Z,101349.19
2022-09-04T03:26:19.560Z,101340.75
2022-09-04T03:29:24.690Z,101349.19
2022-09-04T03:32:15.188Z,101349.91
2022-09-04T03:34:59.926Z,101354.72
2022-09-04T03:37:45.907Z,101328.34
2022-09-04T03:40:21.359Z,101357.19
2022-09-04T03:43:05.861Z,101359.09
2022-09-04T03:45:50.860Z,101362.94
2022-09-04T03:48:45.024Z,101348.81
2022-09-04T03:51:40.744Z,101366.13
2022-09-04T03:54:28.944Z,101365.75
2022-09-04T03:57:25.293Z,101373.06
2022-09-04T04:00:10.336Z,101378.53
2022-09-04T04:03:07.588Z,101369.91
2022-09-04T04:05:47.776Z,101367.00
2022-09-04T04:08:37.107Z,101379.78
2022-09-04T04:11:24.147Z,101383.22
2022-09-04T04:14:12.744Z,101393.34
2022-09-04T04:17:27.752Z,101390.50
2022-09-04T04:20:16.705Z,101388.25
2022-09-04T04:23:06.229Z,101390.34
2022-09-04T04:25:52.656Z,101394.72
2022-09-04T04:28:56.529Z,101395.53
2022-09-04T04:31:46.272Z,101407.75
2022-09-04T04:34:29.565Z,101404.63
2022-09-04T04:37:09.042Z,101406.63
2022-09-04T04:39:58.789Z,101386.00
2022-09-04T04:42:44.747Z,101408.16
2022-09-04T04:45:40.461Z,101412.72
2022-09-04T04:48:28.922Z,101417.88
2022-09-04T04:51:32.856Z,101413.94
2022-09-04T04:54:23.856Z,101416.09
2022-09-04T04:57:05.107Z,101414.19
2022-09-04T05:00:05.712Z,101409.41
2022-09-04T05:03:08.555Z,101430.47
2022-09-04T05:05:59.819Z,101422.22
2022-09-04T05:08:50.191Z,101430.38
2022-09-04T05:11:34.525Z,101432.69
2022-09-04T05:14:28.675Z,101438.72
2022-09-04T05:17:19.975Z,101447.41
2022-09-04T05:20:14.582Z,101448.91
2022-09-04T05:22:47.661Z,101460.97
2022-09-04T05:25:20.089Z,101458.28
2022-09-04T05:28:28.395Z,101464.28
2022-09-04T05:31:05.228Z,101468.06
2022-09-04T05:33:43.765Z,101468.38
2022-09-04T05:36:41.354Z,101471.44
2022-09-04T05:39:47.227Z,101474.75
2022-09-04T05:42:45.527Z,101474.09
2022-09-04T05:45:25.208Z,101473.41
2022-09-04T05:47:51.719Z,101483.94
2022-09-04T05:50:24.233Z,101474.69
2022-09-04T05:53:28.534Z,101487.28
2022-09-04T05:56:07.150Z,101480.66
2022-09-04T05:59:10.768Z,101481.59
2022-09-04T06:02:05.151Z,101483.88
2022-09-04T06:04:37.589Z,101485.75
2022-09-04T06:07:36.322Z,101487.63
2022-09-04T06:10:47.863Z,101490.94
2022-09-04T06:13:38.413Z,101499.41
2022-09-04T06:16:17.863Z,101504.75
2022-09-04T06:18:50.395Z,101495.53
2022-09-04T06:21:35.571Z,101506.28
2022-09-04T06:24:11.061Z,101505.59
2022-09-04T06:27:10.895Z,101504.31
2022-09-04T06:29:57.791Z,101505.38
2022-09-04T06:32:44.761Z,101506.97
2022-09-04T06:35:23.541Z,101503.50
2022-09-04T06:38:00.775Z,101509.44
2022-09-04T06:40:41.995Z,101518.31
2022-09-04T06:43:19.467Z,101495.94
2022-09-04T06:46:02.474Z,101501.34
2022-09-04T06:49:00.472Z,101506.56
2022-09-04T06:51:34.653Z,101510.81
2022-09-04T06:54:01.158Z,101516.03
2022-09-04T06:56:46.050Z,101518.22
2022-09-04T06:59:55.763Z,101508.34
2022-09-04T07:02:57.745Z,101522.16
2022-09-04T07:05:49.522Z,101515.72
2022-09-04T07:08:54.224Z,101537.28
2022-09-04T07:11:55.329Z,101538.22
2022-09-04T07:14:55.981Z,101544.91
2022-09-04T07:17:30.170Z,101545.50
2022-09-04T07:20:02.849Z,101545.72
2022-09-04T07:22:56.986Z,101553.25
2022-09-04T07:25:29.577Z,101548.16
2022-09-04T07:28:14.778Z,101544.88
2022-09-04T07:31:11.189Z,101542.03
2022-09-04T07:33:50.402Z,101539.28
2022-09-04T07:36:40.507Z,101553.72
2022-09-04T07:39:30.964Z,101541.09
2022-09-04T07:42:23.742Z,101553.53
2022-09-04T07:45:16.583Z,101551.75
2022-09-04T07:47:47.519Z,101552.56
2022-09-04T07:50:29.166Z,101556.69
2022-09-04T07:53:32.783Z,101563.75
2022-09-04T07:56:30.048Z,101568.91
2022-09-04T07:59:04.919Z,101563.88
2022-09-04T08:01:44.685Z,101569.69
2022-09-04T08:04:44.351Z,101567.38
2022-09-04T08:07:34.175Z,101576.16
2022-09-04T08:10:10.298Z,101574.13
2022-09-04T08:13:15.153Z,101577.22
2022-09-04T08:15:58.890Z,101554.81
2022-09-04T08:18:53.091Z,101569.44
2022-09-04T08:21:33.581Z,101574.72
2022-09-04T08:24:37.171Z,101574.84
2022-09-04T08:27:51.701Z,101575.19
2022-09-04T08:30:22.201Z,101587.94
2022-09-04T08:33:10.398Z,101588.34
2022-09-04T08:35:52.659Z,101582.25
2022-09-04T08:38:31.005Z,101587.53
2022-09-04T08:41:35.422Z,101584.41
2022-09-04T08:44:26.579Z,101581.22
2022-09-04T08:47:01.669Z,101577.63
2022-09-04T08:50:03.840Z,101584.44
2022-09-04T08:53:08.121Z,101593.34
2022-09-04T08:56:09.125Z,101581.38
2022-09-04T08:59:07.368Z,101576.22
2022-09-04T09:01:44.521Z,101571.84
2022-09-04T09:04:51.466Z,101575.63
2022-09-04T09:07:55.669Z,101583.78
2022-09-04T09:10:57.183Z,101569.97
2022-09-04T09:13:49.218Z,101592.59
2022-09-04T09:16:42.861Z,101587.97
2022-09-04T09:19:22.705Z,101599.94
2022-09-04T09:22:10.266Z,101583.66
2022-09-04T09:24:56.181Z,101595.84
2022-09-04T09:27:26.733Z,101595.13
2022-09-04T09:29:56.186Z,101597.84
2022-09-04T09:32:33.857Z,101597.84
2022-09-04T09:35:02.909Z,101593.13
2022-09-04T09:38:06.604Z,101595.66
2022-09-04T09:41:09.687Z,101596.31
2022-09-04T09:44:08.117Z,101585.00
2022-09-04T09:46:58.265Z,101595.16
2022-09-04T09:50:22.998Z,101573.56
2022-09-04T09:53:13.207Z,101597.75
2022-09-04T09:56:04.956Z,101594.88
2022-09-04T09:59:00.616Z,101581.28
2022-09-04T10:01:55.009Z,101593.00
2022-09-04T10:04:46.373Z,101593.13
2022-09-04T10:07:18.472Z,101592.50
2022-09-04T10:10:02.107Z,101593.94
2022-09-04T10:13:15.245Z,101591.88
2022-09-04T10:16:12.040Z,101604.84
2022-09-04T10:19:12.272Z,101603.50
2022-09-04T10:21:57.046Z,101605.34
2022-09-04T10:25:03.691Z,101597.16
2022-09-04T10:27:59.398Z,101602.16
2022-09-04T10:30:35.711Z,101610.94
2022-09-04T10:33:18.746Z,101601.97
2022-09-04T10:36:13.538Z,101604.59
2022-09-04T10:39:08.954Z,101612.69
2022-09-04T10:41:47.436Z,101607.66
2022-09-04T10:44:25.589Z,101600.97
2022-09-04T10:47:11.738Z,101611.81
2022-09-04T10:50:04.878Z,101624.19
2022-09-04T10:53:23.705Z,101630.66
2022-09-04T10:56:34.329Z,101624.00
2022-09-04T10:59:03.732Z,101633.41
2022-09-04T11:01:58.392Z,101622.78
2022-09-04T11:05:20.422Z,101622.28
2022-09-04T11:08:13.654Z,101611.41
2022-09-04T11:10:55.655Z,101630.53
2022-09-04T11:13:51.095Z,101631.59
2022-09-04T11:16:30.828Z,101633.28
2022-09-04T11:19:15.281Z,101629.44
2022-09-04T11:22:20.400Z,101631.63
2022-09-04T11:25:24.206Z,101627.81
2022-09-04T11:28:06.439Z,101632.47
2022-09-04T11:30:48.548Z,101634.66
2022-09-04T11:33:44.179Z,101626.47
2022-09-04T11:36:35.445Z,101633.06
2022-09-04T11:39:18.439Z,101628.94
2022-09-04T11:42:27.683Z,101627.88
2022-09-04T11:45:31.512Z,101632.78
2022-09-04T11:48:19.322Z,101633.34
2022-09-04T11:51:16.610Z,101636.06
2022-09-04T11:54:10.924Z,101631.69
2022-09-04T11:57:20.957Z,101624.31
2022-09-04T12:00:11.359Z,101617.44
2022-09-04T12:02:47.457Z,101640.16
2022-09-04T12:05:53.922Z,101637.69
2022-09-04T12:08:38.593Z,101646.16
2022-09-04T12:11:11.466Z,101643.13
2022-09-04T12:14:15.521Z,101644.19
2022-09-04T12:17:29.655Z,101651.00
2022-09-04T12:20:23.996Z,101643.88
2022-09-04T12:23:15.564Z,101647.72
2022-09-04T12:26:21.431Z,101648.84
2022-09-04T12:29:13.878Z,101650.19
2022-09-04T12:31:51.824Z,101649.69
2022-09-04T12:35:01.695Z,101644.47
2022-09-04T12:37:54.005Z,101656.28
2022-09-04T12:40:34.481Z,101650.50
2022-09-04T12:43:24.263Z,101665.28
2022-09-04T12:46:04.393Z,101665.56
2022-09-04T12:48:59.789Z,101659.84
2022-09-04T12:51:35.294Z,101656.84
2022-09-04T12:54:31.493Z,101656.03
2022-09-04T12:57:35.501Z,101657.41
2022-09-04T13:00:16.231Z,101663.66
2022-09-04T13:02:59.817Z,101669.41
2022-09-04T13:05:52.840Z,101644.53
2022-09-04T13:08:52.657Z,101666.94
2022-09-04T13:11:40.298Z,101666.16
2022-09-04T13:14:25.010Z,101668.88
2022-09-04T13:17:06.590Z,101658.47
2022-09-04T13:20:00.147Z,101674.59
2022-09-04T13:22:46.258Z,101675.44
2022-09-04T13:25:35.342Z,101656.03
2022-09-04T13:28:24.657Z,101677.63
2022-09-04T13:31:05.591Z,101657.41
2022-09-04T13:34:03.084Z,101670.53
2022-09-04T13:36:57.956Z,101671.63
2022-09-04T13:39:50.492Z,101673.81
2022-09-04T13:42:50.623Z,101669.69
2022-09-04T13:45:23.723Z,101673.53
2022-09-04T13:48:01.109Z,101659.88
2022-09-04T13:50:37.783Z,101650.00
2022-09-04T13:53:19.461Z,101679.00
2022-09-04T13:55:51.459Z,101651.66
2022-09-04T13:58:35.009Z,101676.28
2022-09-04T14:01:07.191Z,101650.28
2022-09-04T14:03:45.547Z,101674.59
2022-09-04T14:06:16.514Z,101663.41
2022-09-04T14:08:46.070Z,101681.19
2022-09-04T14:11:58.415Z,101681.72
2022-09-04T14:14:43.102Z,101679.56
2022-09-04T14:17:10.329Z,101675.72
2022-09-04T14:19:46.959Z,101676.53
2022-09-04T14:22:42.478Z,101669.97
2022-09-04T14:25:21.176Z,101672.69
2022-09-04T14:28:04.292Z,101681.19
2022-09-04T14:30:55.742Z,101681.72
2022-09-04T14:33:51.186Z,101681.47
2022-09-04T14:36:40.794Z,101671.88
2022-09-04T14:39:14.617Z,101668.88
2022-09-04T14:42:05.837Z,101663.66
2022-09-04T14:44:32.541Z,101670.50
2022-09-04T14:47:20.601Z,101638.22
2022-09-04T14:49:51.369Z,101663.38
2022-09-04T14:52:23.790Z,101660.41
2022-09-04T14:54:57.674Z,101660.66
2022-09-04T14:57:36.186Z,101660.41
2022-09-04T15:00:11.210Z,101662.59
2022-09-04T15:03:15.635Z,101668.34
2022-09-04T15:05:56.811Z,101667.25
2022-09-04T15:08:29.369Z,101668.34
2022-09-04T15:11:00.706Z,101664.78
2022-09-04T15:13:27.081Z,101667.78
2022-09-04T15:16:31.765Z,101662.88
2022-09-04T15:19:07.462Z,101666.13
2022-09-04T15:21:58.916Z,101670.78
2022-09-04T15:24:46.615Z,101669.13
2022-09-04T15:27:16.540Z,101666.38
2022-09-04T15:29:52.038Z,101667.75
2022-09-04T15:32:36.695Z,101664.16
2022-09-04T15:35:26.301Z,101661.44
2022-09-04T15:38:25.934Z,101660.88
2022-09-04T15:41:15.505Z,101664.69
2022-09-04T15:43:46.736Z,101662.22
2022-09-04T15:46:26.284Z,101659.78
2022-09-04T15:48:55.495Z,101664.69
2022-09-04T15:51:41.452Z,101661.66
2022-09-04T15:54:14.115Z,101659.72
2022-09-04T15:56:52.600Z,101661.63
2022-09-04T15:59:20.334Z,101657.22
2022-09-04T16:01:55.853Z,101656.38
2022-09-04T16:04:32.755Z,101656.91
2022-09-04T16:07:34.164Z,101664.78
2022-09-04T16:10:13.614Z,101658.75
2022-09-04T16:12:51.709Z,101664.19
2022-09-04T16:15:24.225Z,101657.34
2022-09-04T16:17:54.652Z,101667.44
2022-09-04T16:20:29.401Z,101651.84
2022-09-04T16:23:01.027Z,101664.19
2022-09-04T16:25:31.104Z,101657.06
2022-09-04T16:28:00.203Z,101665.81
2022-09-04T16:30:56.826Z,101649.66
2022-09-04T16:33:31.972Z,101657.59
2022-09-04T16:36:11.595Z,101660.88
2022-09-04T16:38:47.530Z,101659.75
2022-09-04T16:41:18.419Z,101661.16
2022-09-04T16:44:11.070Z,101655.69
2022-09-04T16:46:44.528Z,101664.66
2022-09-04T16:49:23.097Z,101644.34
2022-09-04T16:52:22.580Z,101657.72
2022-09-04T16:54:55.159Z,101655.53
2022-09-04T16:57:50.487Z,101661.75
2022-09-04T17:00:18.526Z,101654.63
2022-09-04T17:02:53.294Z,101644.72
2022-09-04T17:05:20.014Z,101661.13
2022-09-04T17:07:59.405Z,101664.63
2022-09-04T17:10:44.361Z,101638.81
2022-09-04T17:13:27.605Z,101641.00
2022-09-04T17:16:21.763Z,101656.38
2022-09-04T17:18:55.465Z,101654.16
2022-09-04T17:26:29.838Z,101650.28
2022-09-04T17:29:00.564Z,101663.09
2022-09-04T17:29:17.148Z,101659.25
2022-09-04T17:31:25.819Z,101671.19
2022-09-04T17:40:38.041Z,101675.84
2022-09-04T17:40:42.211Z,101667.09
2022-09-04T17:41:31.383Z,101671.41
2022-09-04T17:43:41.636Z,101665.34
2022-09-04T17:46:23.378Z,101671.94
2022-09-04T17:48:50.525Z,101675.13
2022-09-04T17:51:25.595Z,101688.44
2022-09-04T17:54:04.645Z,101688.91
2022-09-04T17:56:53.683Z,101688.03
2022-09-04T17:59:32.502Z,101691.59
2022-09-04T18:02:18.981Z,101692.28
2022-09-04T18:05:03.488Z,101678.59
2022-09-04T18:08:08.379Z,101684.31
2022-09-04T18:10:31.159Z,101697.34
2022-09-04T18:13:36.520Z,101697.63
2022-09-04T18:16:34.972Z,101698.13
2022-09-04T18:19:32.757Z,101708.34
2022-09-04T18:22:26.735Z,101706.09
2022-09-04T18:25:15.982Z,101707.03
2022-09-04T18:28:11.267Z,101709.44
2022-09-04T18:37:09.838Z,101708.03
2022-09-04T18:37:09.911Z,101710.69
2022-09-04T18:37:25.486Z,101702.19
2022-09-04T18:40:15.409Z,101717.13
2022-09-04T18:48:52.799Z,101722.44
2022-09-04T18:50:30.654Z,101731.50
2022-09-04T18:50:38.908Z,101731.00
2022-09-04T18:51:30.501Z,101717.25
2022-09-04T18:54:33.190Z,101742.75
2022-09-04T18:57:12.124Z,101742.81
2022-09-04T18:59:44.458Z,101744.44
2022-09-04T19:02:24.048Z,101742.81
2022-09-04T19:04:56.097Z,101742.88
2022-09-04T19:07:34.334Z,101741.47
2022-09-04T19:10:09.666Z,101743.25
2022-09-04T19:13:02.204Z,101750.72
2022-09-04T19:15:45.509Z,101758.53
2022-09-04T19:18:48.640Z,101760.91
2022-09-04T19:21:23.402Z,101752.00
2022-09-04T19:24:04.061Z,101760.63
2022-09-04T19:26:40.705Z,101759.47
2022-09-04T19:29:27.726Z,101755.94
2022-09-04T19:32:04.817Z,101734.72
2022-09-04T19:34:47.293Z,101763.50
2022-09-04T19:40:01.945Z,101760.59
2022-09-04T19:46:03.405Z,101747.78
2022-09-04T19:46:03.889Z,101763.06
2022-09-04T19:46:29.502Z,101758.97
2022-09-04T19:52:17.822Z,101764.91
2022-09-04T19:53:24.424Z,101764.91
2022-09-04T19:55:25.360Z,101766.19
2022-09-04T19:58:23.833Z,101742.38
2022-09-04T20:00:56.744Z,101762.44
2022-09-04T20:03:52.428Z,101768.34
2022-09-04T20:06:25.495Z,101773.69
2022-09-04T20:09:05.387Z,101744.16
2022-09-04T20:11:43.302Z,101750.53
2022-09-04T20:14:21.509Z,101760.44
2022-09-04T20:16:57.257Z,101773.44
2022-09-04T20:19:28.970Z,101772.00
2022-09-04T20:22:00.675Z,101772.50
2022-09-04T20:24:43.236Z,101779.69
2022-09-04T20:27:38.439Z,101784.66
2022-09-04T20:30:11.933Z,101769.69
2022-09-04T20:33:05.320Z,101767.09
2022-09-04T20:35:42.968Z,101758.97
2022-09-04T20:38:25.480Z,101771.00
2022-09-04T20:41:01.768Z,101765.81
2022-09-04T20:43:47.399Z,101753.09
2022-09-04T20:52:46.018Z,101769.59
2022-09-04T20:52:53.680Z,101767.47
2022-09-04T20:53:07.685Z,101769.03
2022-09-04T20:55:46.127Z,101771.38
2022-09-04T21:03:13.055Z,101763.81
2022-09-04T21:03:22.838Z,101771.38
2022-09-04T21:04:15.464Z,101764.28
2022-09-04T21:06:52.052Z,101764.75
2022-09-04T21:09:54.816Z,101763.81
2022-09-04T21:12:38.873Z,101768.78
2022-09-04T21:15:42.748Z,101773.03
2022-09-04T21:18:29.418Z,101784.81
2022-09-04T21:21:17.086Z,101774.31
2022-09-04T21:24:03.052Z,101772.78
2022-09-04T21:26:49.059Z,101782.69
2022-09-04T21:29:21.731Z,101778.88
2022-09-04T21:32:18.645Z,101778.34
2022-09-04T21:35:29.172Z,101777.25
2022-09-04T21:38:07.014Z,101762.69
2022-09-04T21:40:51.222Z,101777.56
2022-09-04T21:43:37.651Z,101780.44
2022-09-04T21:46:31.984Z,101785.06
2022-09-04T21:49:10.876Z,101788.84
2022-09-04T21:51:58.983Z,101786.19
2022-09-04T21:59:32.716Z,101789.94
2022-09-04T22:02:29.982Z,101785.06
2022-09-04T22:02:42.951Z,101789.41
2022-09-04T22:04:08.135Z,101779.28
2022-09-04T22:08:52.909Z,101790.44
2022-09-04T22:13:30.398Z,101765.53
2022-09-04T22:13:37.632Z,101789.47
2022-09-04T22:16:45.704Z,101796.41
2022-09-04T22:19:36.722Z,101788.63
2022-09-04T22:22:31.080Z,101780.34
2022-09-04T22:25:16.238Z,101788.22
2022-09-04T22:28:08.969Z,101788.22
2022-09-04T22:31:04.516Z,101787.72
2022-09-04T22:34:15.678Z,101773.06
2022-09-04T22:37:00.857Z,101790.41
2022-09-04T22:39:46.203Z,101791.94
2022-09-04T22:42:38.389Z,101772.34
2022-09-04T22:45:20.126Z,101789.44
2022-09-04T22:48:05.284Z,101792.38
2022-09-04T22:50:50.218Z,101768.41
2022-09-04T22:53:38.271Z,101794.16
2022-09-04T22:56:23.439Z,101795.88
2022-09-04T22:59:26.654Z,101796.09
2022-09-04T23:02:39.902Z,101776.81
2022-09-04T23:05:29.201Z,101784.09
2022-09-04T23:13:42.023Z,101783.34
2022-09-04T23:13:49.424Z,101786.75
2022-09-04T23:14:23.571Z,101783.44
2022-09-04T23:16:59.349Z,101777.13
2022-09-04T23:26:33.134Z,101781.34
2022-09-04T23:26:46.041Z,101774.78
2022-09-04T23:26:54.235Z,101781.91
2022-09-04T23:29:00.144Z,101778.63
2022-09-04T23:32:13.225Z,101773.63
2022-09-04T23:35:15.047Z,101772.59
2022-09-04T23:38:08.384Z,101770.94
2022-09-04T23:40:42.819Z,101743.88
2022-09-04T23:43:28.031Z,101755.91
2022-09-04T23:46:18.052Z,101741.47
2022-09-04T23:49:05.481Z,101755.47
2022-09-04T23:51:58.150Z,101757.31
2022-09-04T23:54:55.609Z,101748.41
2022-09-04T23:57:54.440Z,101756.06
